createdAt,value
2023-03-06T00:00:49.962Z,84.07
2023-03-06T00:03:16.806Z,84.22
2023-03-06T00:05:43.215Z,84.35
2023-03-06T00:08:09.618Z,84.07
2023-03-06T00:10:36.079Z,84.08
2023-03-06T00:13:05.359Z,84.34
2023-03-06T00:15:35.280Z,83.96
2023-03-06T00:18:06.869Z,83.94
2023-03-06T00:20:34.963Z,84.02
2023-03-06T00:23:01.625Z,84.08
2023-03-06T00:25:27.941Z,84.12
2023-03-06T00:27:54.256Z,83.97
2023-03-06T00:30:22.859Z,84.00
2023-03-06T00:32:49.978Z,83.95
2023-03-06T00:35:17.278Z,84.20
2023-03-06T00:37:44.011Z,84.53
2023-03-06T00:40:14.514Z,84.74
2023-03-06T00:42:41.355Z,84.76
2023-03-06T00:45:08.223Z,84.61
2023-03-06T00:47:34.603Z,85.05
2023-03-06T00:50:00.922Z,85.57
2023-03-06T00:52:27.382Z,85.60
2023-03-06T00:54:53.824Z,85.67
2023-03-06T00:57:20.154Z,85.73
2023-03-06T00:59:46.462Z,86.08
2023-03-06T01:02:13.060Z,86.11
2023-03-06T01:04:39.517Z,86.10
2023-03-06T01:07:05.918Z,86.11
2023-03-06T01:09:32.511Z,86.01
2023-03-06T01:11:59.093Z,86.43
2023-03-06T01:14:25.954Z,86.52
2023-03-06T01:16:53.919Z,86.63
2023-03-06T01:19:20.403Z,86.85
2023-03-06T01:21:46.771Z,86.71
2023-03-06T01:24:13.333Z,86.96
2023-03-06T01:26:39.673Z,86.76
2023-03-06T01:29:06.311Z,86.97
2023-03-06T01:31:32.856Z,86.80
2023-03-06T01:33:59.238Z,86.89
2023-03-06T01:36:25.551Z,86.86
2023-03-06T01:38:51.892Z,86.80
2023-03-06T01:41:18.374Z,86.80
2023-03-06T01:43:46.239Z,87.02
2023-03-06T01:46:34.314Z,86.89
2023-03-06T01:49:08.297Z,87.12
2023-03-06T01:51:39.613Z,87.11
2023-03-06T01:54:12.053Z,87.11
2023-03-06T01:56:41.828Z,87.20
2023-03-06T01:59:08.305Z,86.82
2023-03-06T02:01:35.448Z,86.88
2023-03-06T02:04:02.271Z,86.95
2023-03-06T02:06:28.588Z,87.03
2023-03-06T02:08:55.984Z,87.02
2023-03-06T02:11:24.648Z,86.92
2023-03-06T02:13:53.541Z,86.76
2023-03-06T02:16:26.623Z,86.84
2023-03-06T02:18:54.238Z,86.64
2023-03-06T02:21:35.536Z,86.85
2023-03-06T02:24:15.892Z,86.79
2023-03-06T02:26:43.650Z,86.88
2023-03-06T02:29:09.977Z,87.13
2023-03-06T02:31:36.493Z,87.04
2023-03-06T02:34:04.409Z,87.00
2023-03-06T02:36:33.558Z,86.87
2023-03-06T02:39:00.214Z,87.18
2023-03-06T02:41:26.855Z,87.06
2023-03-06T02:43:53.162Z,87.09
2023-03-06T02:46:19.593Z,87.32
2023-03-06T02:48:45.945Z,87.55
2023-03-06T02:51:12.258Z,87.79
2023-03-06T02:53:38.658Z,88.13
2023-03-06T02:56:05.380Z,88.43
2023-03-06T02:58:31.722Z,88.66
2023-03-06T03:00:58.027Z,88.74
2023-03-06T03:03:24.435Z,88.93
2023-03-06T03:05:50.741Z,89.07
2023-03-06T03:08:17.724Z,89.08
2023-03-06T03:10:44.173Z,89.33
2023-03-06T03:13:10.594Z,89.24
2023-03-06T03:15:36.945Z,89.38
2023-03-06T03:18:03.432Z,89.39
2023-03-06T03:20:30.090Z,89.47
2023-03-06T03:22:56.648Z,89.49
2023-03-06T03:25:25.010Z,89.68
2023-03-06T03:27:51.454Z,89.62
2023-03-06T03:30:17.876Z,89.59
2023-03-06T03:32:44.242Z,89.71
2023-03-06T03:35:12.144Z,89.60
2023-03-06T03:37:39.071Z,89.61
2023-03-06T03:40:07.125Z,89.73
2023-03-06T03:42:36.629Z,89.52
2023-03-06T03:45:03.104Z,89.58
2023-03-06T03:47:29.457Z,89.39
2023-03-06T03:49:55.757Z,89.50
2023-03-06T03:52:22.174Z,89.61
2023-03-06T03:54:48.594Z,89.47
2023-03-06T03:57:14.947Z,89.54
2023-03-06T03:59:41.291Z,89.55
2023-03-06T04:02:09.063Z,89.46
2023-03-06T04:04:35.515Z,89.33
2023-03-06T04:07:01.924Z,89.26
2023-03-06T04:09:28.300Z,89.18
2023-03-06T04:11:54.839Z,89.33
2023-03-06T04:14:21.225Z,89.29
2023-03-06T04:16:47.612Z,89.15
2023-03-06T04:19:13.949Z,89.15
2023-03-06T04:21:40.326Z,88.88
2023-03-06T04:24:07.160Z,89.12
2023-03-06T04:26:33.498Z,89.29
2023-03-06T04:28:59.862Z,89.13
2023-03-06T04:31:26.249Z,88.99
2023-03-06T04:33:52.598Z,89.08
2023-03-06T04:36:29.037Z,89.11
2023-03-06T04:38:59.319Z,89.12
2023-03-06T04:41:26.354Z,89.17
2023-03-06T04:43:53.189Z,89.32
2023-03-06T04:46:19.641Z,89.23
2023-03-06T04:48:46.056Z,88.98
2023-03-06T04:51:13.606Z,89.21
2023-03-06T04:53:39.960Z,89.25
2023-03-06T04:56:06.967Z,89.33
2023-03-06T04:58:33.602Z,89.31
2023-03-06T05:00:59.919Z,89.31
2023-03-06T05:03:26.286Z,89.31
2023-03-06T05:05:52.642Z,89.29
2023-03-06T05:08:18.970Z,89.38
2023-03-06T05:10:45.559Z,89.39
2023-03-06T05:13:12.480Z,89.58
2023-03-06T05:15:41.947Z,89.57
2023-03-06T05:18:08.281Z,89.37
2023-03-06T05:20:34.635Z,89.70
2023-03-06T05:23:00.946Z,89.87
2023-03-06T05:25:27.339Z,89.67
2023-03-06T05:27:53.674Z,89.78
2023-03-06T05:30:23.021Z,89.67
2023-03-06T05:32:50.336Z,89.55
2023-03-06T05:35:20.063Z,89.86
2023-03-06T05:37:46.815Z,89.71
2023-03-06T05:40:14.721Z,89.75
2023-03-06T05:42:41.575Z,89.83
2023-03-06T05:45:08.718Z,89.69
2023-03-06T05:47:35.146Z,89.97
2023-03-06T05:50:01.799Z,89.81
2023-03-06T05:52:28.147Z,90.03
2023-03-06T05:54:54.893Z,90.00
2023-03-06T05:57:23.346Z,89.87
2023-03-06T05:59:50.187Z,89.94
2023-03-06T06:02:18.189Z,89.77
2023-03-06T06:04:44.830Z,89.89
2023-03-06T06:07:14.534Z,89.90
2023-03-06T06:09:41.252Z,89.94
2023-03-06T06:12:07.930Z,89.86
2023-03-06T06:14:34.690Z,89.85
2023-03-06T06:17:01.153Z,90.01
2023-03-06T06:19:31.350Z,90.03
2023-03-06T06:21:58.086Z,89.91
2023-03-06T06:24:26.785Z,90.12
2023-03-06T06:26:55.933Z,90.09
2023-03-06T06:29:23.599Z,90.16
2023-03-06T06:31:50.386Z,90.25
2023-03-06T06:34:16.883Z,90.22
2023-03-06T06:36:43.602Z,90.43
2023-03-06T06:39:13.385Z,90.43
2023-03-06T06:41:57.042Z,90.25
2023-03-06T06:44:26.031Z,90.46
2023-03-06T06:47:21.794Z,90.32
2023-03-06T06:49:39.492Z,90.35
2023-03-06T06:52:06.730Z,90.23
2023-03-06T06:54:34.597Z,89.96
2023-03-06T06:57:00.913Z,90.09
2023-03-06T06:59:27.320Z,90.08
2023-03-06T07:01:53.904Z,89.92
2023-03-06T07:04:20.406Z,89.57
2023-03-06T07:06:47.010Z,89.49
2023-03-06T07:09:13.897Z,89.31
2023-03-06T07:11:40.977Z,89.38
2023-03-06T07:14:07.902Z,89.22
2023-03-06T07:16:34.323Z,89.18
2023-03-06T07:19:00.704Z,88.68
2023-03-06T07:21:27.246Z,88.67
2023-03-06T07:23:54.256Z,88.48
2023-03-06T07:26:20.624Z,88.37
2023-03-06T07:28:52.621Z,88.16
2023-03-06T07:31:25.159Z,87.54
2023-03-06T07:33:53.000Z,87.22
2023-03-06T07:36:20.495Z,86.83
2023-03-06T07:38:46.850Z,85.63
2023-03-06T07:41:14.439Z,83.41
2023-03-06T07:43:42.387Z,81.56
2023-03-06T07:46:09.376Z,80.14
2023-03-06T07:48:37.313Z,79.65
2023-03-06T07:51:06.924Z,79.65
2023-03-06T07:53:34.500Z,78.76
2023-03-06T07:56:01.056Z,78.34
2023-03-06T07:58:27.375Z,79.02
2023-03-06T08:00:53.730Z,77.86
2023-03-06T08:03:20.205Z,77.83
2023-03-06T08:05:46.569Z,77.25
2023-03-06T08:08:12.897Z,77.93
2023-03-06T08:10:39.296Z,76.44
2023-03-06T08:13:06.319Z,75.76
2023-03-06T08:15:32.639Z,75.81
2023-03-06T08:17:59.077Z,76.19
2023-03-06T08:20:25.778Z,75.69
2023-03-06T08:22:52.137Z,74.63
2023-03-06T08:25:18.653Z,74.84
2023-03-06T08:27:46.655Z,74.42
2023-03-06T08:30:13.569Z,74.04
2023-03-06T08:32:40.118Z,73.14
2023-03-06T08:35:07.523Z,73.46
2023-03-06T08:37:33.944Z,72.42
2023-03-06T08:40:02.513Z,72.76
2023-03-06T08:42:28.865Z,72.99
2023-03-06T08:44:55.279Z,72.29
2023-03-06T08:47:21.623Z,72.30
2023-03-06T08:49:47.991Z,71.18
2023-03-06T08:52:16.873Z,70.61
2023-03-06T08:54:43.287Z,70.29
2023-03-06T08:57:09.600Z,70.34
2023-03-06T08:59:36.893Z,69.99
2023-03-06T09:02:05.322Z,69.92
2023-03-06T09:04:31.814Z,68.30
2023-03-06T09:07:00.558Z,63.66
2023-03-06T09:09:26.896Z,63.30
2023-03-06T09:11:53.558Z,62.91
2023-03-06T09:14:19.888Z,62.72
2023-03-06T09:16:46.255Z,62.88
2023-03-06T09:19:12.628Z,62.86
2023-03-06T09:21:39.162Z,61.17
2023-03-06T09:24:05.684Z,58.72
2023-03-06T09:26:45.054Z,57.19
2023-03-06T09:29:13.000Z,55.24
2023-03-06T09:31:39.386Z,54.09
2023-03-06T09:34:05.721Z,54.46
2023-03-06T09:36:40.126Z,55.13
2023-03-06T09:39:12.339Z,54.72
2023-03-06T09:41:41.482Z,56.09
2023-03-06T09:44:16.186Z,56.90
2023-03-06T09:46:57.447Z,58.37
2023-03-06T09:49:41.991Z,59.71
2023-03-06T09:52:23.481Z,58.14
2023-03-06T09:54:58.914Z,58.20
2023-03-06T09:57:35.364Z,57.94
2023-03-06T10:00:06.736Z,59.11
2023-03-06T10:02:40.975Z,57.31
2023-03-06T10:05:13.605Z,57.20
2023-03-06T10:07:46.835Z,58.34
2023-03-06T10:10:55.018Z,57.93
2023-03-06T10:13:46.837Z,57.38
2023-03-06T10:16:26.071Z,57.39
2023-03-06T10:18:54.163Z,56.89
2023-03-06T10:21:27.230Z,56.66
2023-03-06T10:23:58.388Z,55.58
2023-03-06T10:26:27.828Z,54.79
2023-03-06T10:29:12.534Z,54.64
2023-03-06T10:31:44.639Z,56.13
2023-03-06T10:34:16.915Z,55.08
2023-03-06T10:36:43.299Z,55.03
2023-03-06T10:39:15.744Z,52.71
2023-03-06T10:41:43.299Z,53.00
2023-03-06T10:44:13.165Z,53.89
2023-03-06T10:46:43.103Z,53.52
2023-03-06T10:49:30.188Z,53.63
2023-03-06T10:52:01.579Z,52.92
2023-03-06T10:54:30.830Z,53.48
2023-03-06T10:56:57.171Z,51.90
2023-03-06T10:59:29.370Z,54.09
2023-03-06T11:01:58.427Z,52.29
2023-03-06T11:04:28.554Z,54.15
2023-03-06T11:07:21.753Z,52.62
2023-03-06T11:09:57.281Z,52.34
2023-03-06T11:12:23.677Z,52.16
2023-03-06T11:15:12.596Z,52.47
2023-03-06T11:17:50.302Z,53.65
2023-03-06T11:20:51.884Z,53.42
2023-03-06T11:23:41.235Z,51.96
2023-03-06T11:26:16.617Z,52.41
2023-03-06T11:29:00.788Z,54.28
2023-03-06T11:32:07.815Z,54.55
2023-03-06T11:34:41.463Z,55.42
2023-03-06T11:37:20.181Z,53.63
2023-03-06T11:39:53.270Z,53.61
2023-03-06T11:42:43.818Z,53.13
2023-03-06T11:45:29.373Z,54.30
2023-03-06T11:48:13.879Z,55.72
2023-03-06T11:50:45.800Z,54.05
2023-03-06T11:53:33.642Z,54.99
2023-03-06T11:56:16.006Z,53.96
2023-03-06T11:59:07.682Z,53.77
2023-03-06T12:01:41.801Z,55.21
2023-03-06T12:04:36.882Z,55.51
2023-03-06T12:07:40.598Z,56.94
2023-03-06T12:10:52.800Z,58.20
2023-03-06T12:13:35.160Z,57.57
2023-03-06T12:16:01.745Z,57.86
2023-03-06T12:18:36.960Z,58.11
2023-03-06T12:21:07.028Z,57.13
2023-03-06T12:24:07.162Z,57.84
2023-03-06T12:27:08.950Z,58.76
2023-03-06T12:30:04.094Z,59.24
2023-03-06T12:32:45.682Z,59.74
2023-03-06T12:35:29.463Z,60.05
2023-03-06T12:38:11.031Z,60.71
2023-03-06T12:41:28.898Z,60.11
2023-03-06T12:44:24.321Z,60.20
2023-03-06T12:46:59.107Z,61.36
2023-03-06T12:49:38.464Z,60.76
2023-03-06T12:52:07.571Z,60.57
2023-03-06T12:54:38.013Z,61.94
2023-03-06T12:57:07.338Z,61.61
2023-03-06T12:59:36.773Z,62.79
2023-03-06T13:02:21.313Z,62.67
2023-03-06T13:05:04.973Z,63.19
2023-03-06T13:07:52.887Z,63.93
2023-03-06T13:10:33.508Z,64.16
2023-03-06T13:13:38.619Z,63.61
2023-03-06T13:16:12.830Z,63.42
2023-03-06T13:18:42.130Z,61.95
2023-03-06T13:21:44.390Z,62.78
2023-03-06T13:24:37.474Z,61.45
2023-03-06T13:27:12.393Z,62.56
2023-03-06T13:29:38.636Z,62.42
2023-03-06T13:34:56.398Z,62.65
2023-03-06T13:37:23.146Z,62.97
2023-03-06T13:39:55.638Z,62.70
2023-03-06T13:42:33.023Z,64.01
2023-03-06T13:45:15.365Z,63.36
2023-03-06T13:48:19.499Z,62.96
2023-03-06T13:50:47.278Z,63.63
2023-03-06T13:53:49.103Z,63.29
2023-03-06T13:56:15.403Z,64.18
2023-03-06T13:59:17.570Z,64.50
2023-03-06T14:02:02.393Z,64.58
2023-03-06T14:04:35.676Z,64.71
2023-03-06T14:07:06.244Z,65.79
2023-03-06T14:09:42.534Z,64.82
2023-03-06T14:12:36.635Z,65.07
2023-03-06T14:15:14.952Z,65.44
2023-03-06T14:17:54.377Z,64.40
2023-03-06T14:20:22.534Z,64.63
2023-03-06T14:22:49.240Z,63.42
2023-03-06T14:25:31.752Z,64.63
2023-03-06T14:28:05.686Z,65.05
2023-03-06T14:30:49.035Z,65.22
2023-03-06T14:33:27.639Z,66.12
2023-03-06T14:35:56.682Z,68.21
2023-03-06T14:38:23.107Z,69.69
2023-03-06T14:40:49.478Z,70.00
2023-03-06T14:43:22.864Z,70.27
2023-03-06T14:45:55.971Z,67.87
2023-03-06T14:48:24.451Z,66.96
2023-03-06T14:50:53.191Z,66.62
2023-03-06T14:53:28.098Z,68.26
2023-03-06T14:56:04.453Z,69.07
2023-03-06T14:58:38.220Z,69.65
2023-03-06T15:01:13.121Z,68.36
2023-03-06T15:03:50.088Z,67.46
2023-03-06T15:06:24.245Z,65.87
2023-03-06T15:09:27.809Z,65.56
2023-03-06T15:12:01.181Z,63.52
2023-03-06T15:14:55.579Z,64.21
2023-03-06T15:17:26.120Z,64.66
2023-03-06T15:19:58.098Z,64.26
2023-03-06T15:22:38.749Z,63.81
2023-03-06T15:25:30.009Z,65.41
2023-03-06T15:28:22.562Z,65.78
2023-03-06T15:31:10.535Z,65.40
2023-03-06T15:33:37.609Z,65.31
2023-03-06T15:36:06.261Z,65.74
2023-03-06T15:38:41.896Z,64.74
2023-03-06T15:41:31.714Z,65.52
2023-03-06T15:43:59.952Z,65.08
2023-03-06T15:46:26.335Z,64.73
2023-03-06T15:49:04.169Z,64.19
2023-03-06T15:51:32.101Z,64.53
2023-03-06T15:54:09.861Z,64.98
2023-03-06T15:56:40.744Z,64.65
2023-03-06T15:59:10.697Z,65.43
2023-03-06T16:01:37.488Z,65.34
2023-03-06T16:04:04.196Z,65.94
2023-03-06T16:06:30.566Z,66.52
2023-03-06T16:08:57.135Z,67.18
2023-03-06T16:11:35.337Z,68.45
2023-03-06T16:14:18.852Z,69.45
2023-03-06T16:16:45.582Z,70.57
2023-03-06T16:19:25.264Z,72.00
2023-03-06T16:21:52.718Z,72.74
2023-03-06T16:24:19.190Z,73.86
2023-03-06T16:26:48.043Z,74.89
2023-03-06T16:29:19.789Z,75.48
2023-03-06T16:31:46.898Z,75.99
2023-03-06T16:34:14.024Z,76.91
2023-03-06T16:36:40.754Z,77.84
2023-03-06T16:39:13.475Z,77.74
2023-03-06T16:41:39.905Z,77.40
2023-03-06T16:44:07.726Z,77.87
2023-03-06T16:46:38.540Z,78.41
2023-03-06T16:49:04.886Z,78.70
2023-03-06T16:51:31.779Z,79.36
2023-03-06T16:53:58.082Z,79.51
2023-03-06T16:56:24.420Z,79.80
2023-03-06T16:58:50.819Z,80.00
2023-03-06T17:01:19.026Z,80.25
2023-03-06T17:03:45.813Z,80.35
2023-03-06T17:06:18.021Z,80.64
2023-03-06T17:08:45.223Z,80.83
2023-03-06T17:11:11.922Z,80.82
2023-03-06T17:13:38.441Z,81.05
2023-03-06T17:16:05.260Z,81.42
2023-03-06T17:18:31.688Z,81.52
2023-03-06T17:20:58.896Z,81.89
2023-03-06T17:23:27.180Z,81.84
2023-03-06T17:26:07.031Z,81.99
2023-03-06T17:28:34.821Z,82.19
2023-03-06T17:31:02.845Z,82.47
2023-03-06T17:33:29.622Z,82.33
2023-03-06T17:36:00.406Z,82.73
2023-03-06T17:38:27.110Z,82.91
2023-03-06T17:40:53.600Z,82.84
2023-03-06T17:43:20.805Z,82.66
2023-03-06T17:45:47.458Z,82.37
2023-03-06T17:48:14.359Z,82.28
2023-03-06T17:50:40.672Z,81.98
2023-03-06T17:53:06.987Z,82.21
2023-03-06T17:55:33.404Z,82.37
2023-03-06T17:57:59.860Z,82.20
2023-03-06T18:00:29.091Z,82.18
2023-03-06T18:02:55.466Z,81.86
2023-03-06T18:05:21.859Z,82.03
2023-03-06T18:07:48.278Z,81.65
2023-03-06T18:10:14.710Z,81.96
2023-03-06T18:12:41.096Z,81.74
2023-03-06T18:15:07.990Z,81.65
2023-03-06T18:17:34.521Z,82.00
2023-03-06T18:20:00.885Z,81.82
2023-03-06T18:22:27.259Z,82.04
2023-03-06T18:24:53.585Z,81.97
2023-03-06T18:27:20.664Z,82.22
2023-03-06T18:29:47.225Z,82.69
2023-03-06T18:32:14.389Z,82.91
2023-03-06T18:34:40.725Z,83.03
2023-03-06T18:37:07.046Z,82.91
2023-03-06T18:39:33.389Z,82.82
2023-03-06T18:41:59.748Z,82.91
2023-03-06T18:44:26.101Z,83.31
2023-03-06T18:46:52.775Z,83.21
2023-03-06T18:49:19.228Z,83.71
2023-03-06T18:51:47.989Z,83.77
2023-03-06T18:54:14.466Z,83.86
2023-03-06T18:56:44.005Z,83.79
2023-03-06T18:59:16.087Z,84.14
2023-03-06T19:01:45.091Z,83.80
2023-03-06T19:04:12.088Z,83.74
2023-03-06T19:06:39.362Z,83.90
2023-03-06T19:09:06.023Z,84.31
2023-03-06T19:11:33.101Z,84.26
2023-03-06T19:13:59.976Z,84.58
2023-03-06T19:16:28.100Z,84.79
2023-03-06T19:18:57.709Z,84.64
2023-03-06T19:21:26.329Z,84.91
2023-03-06T19:23:53.076Z,85.13
2023-03-06T19:26:19.939Z,85.25
2023-03-06T19:28:47.314Z,85.61
2023-03-06T19:31:15.885Z,85.83
2023-03-06T19:33:43.103Z,86.10
2023-03-06T19:36:11.877Z,86.47
2023-03-06T19:38:38.462Z,86.38
2023-03-06T19:41:05.423Z,86.35
2023-03-06T19:43:31.893Z,86.73
2023-03-06T19:45:58.372Z,86.95
2023-03-06T19:48:24.724Z,87.19
2023-03-06T19:50:51.305Z,87.27
2023-03-06T19:53:17.706Z,87.48
2023-03-06T19:55:44.007Z,87.63
2023-03-06T19:58:11.129Z,87.66
2023-03-06T20:00:37.735Z,87.81
2023-03-06T20:03:04.209Z,88.09
2023-03-06T20:05:30.585Z,88.36
2023-03-06T20:07:56.890Z,88.44
2023-03-06T20:10:23.240Z,88.61
2023-03-06T20:12:49.652Z,88.78
2023-03-06T20:15:16.732Z,89.22
2023-03-06T20:17:43.036Z,89.20
2023-03-06T20:20:10.201Z,89.22
2023-03-06T20:22:36.649Z,89.58
2023-03-06T20:25:03.427Z,89.45
2023-03-06T20:27:29.819Z,89.60
2023-03-06T20:29:56.226Z,89.96
2023-03-06T20:32:22.771Z,90.01
2023-03-06T20:34:49.215Z,89.95
2023-03-06T20:37:15.546Z,90.19
2023-03-06T20:39:41.873Z,90.30
2023-03-06T20:42:08.252Z,90.49
2023-03-06T20:44:34.614Z,90.69
2023-03-06T20:47:01.008Z,90.55
2023-03-06T20:49:28.474Z,90.78
2023-03-06T20:51:55.944Z,90.76
2023-03-06T20:54:22.282Z,91.02
2023-03-06T20:56:49.219Z,91.21
2023-03-06T20:59:15.841Z,91.10
2023-03-06T21:01:44.911Z,91.60
2023-03-06T21:04:13.893Z,91.38
2023-03-06T21:06:42.369Z,91.58
2023-03-06T21:09:08.693Z,91.82
2023-03-06T21:11:35.194Z,92.03
2023-03-06T21:14:01.920Z,91.83
2023-03-06T21:16:30.043Z,92.00
2023-03-06T21:18:57.876Z,91.96
2023-03-06T21:21:27.155Z,92.19
2023-03-06T21:23:53.488Z,92.29
2023-03-06T21:26:25.033Z,92.31
2023-03-06T21:28:51.549Z,92.40
2023-03-06T21:31:19.813Z,92.27
2023-03-06T21:33:47.169Z,92.42
2023-03-06T21:36:13.537Z,92.54
2023-03-06T21:38:40.018Z,92.53
2023-03-06T21:41:28.659Z,92.53
2023-03-06T21:44:00.770Z,92.78
2023-03-06T21:46:28.002Z,92.76
2023-03-06T21:48:54.773Z,92.84
2023-03-06T21:51:23.590Z,92.90
2023-03-06T21:53:53.249Z,93.07
2023-03-06T21:56:21.971Z,92.90
2023-03-06T21:58:48.376Z,93.11
2023-03-06T22:01:23.444Z,93.36
2023-03-06T22:03:50.045Z,93.31
2023-03-06T22:06:22.496Z,93.17
2023-03-06T22:08:48.840Z,93.16
2023-03-06T22:11:17.643Z,93.05
2023-03-06T22:13:45.078Z,93.29
2023-03-06T22:16:12.273Z,93.12
2023-03-06T22:18:38.918Z,92.99
2023-03-06T22:21:10.098Z,92.88
2023-03-06T22:23:36.989Z,92.82
2023-03-06T22:26:05.409Z,92.53
2023-03-06T22:28:31.842Z,92.61
2023-03-06T22:31:08.488Z,92.50
2023-03-06T22:33:35.483Z,92.23
2023-03-06T22:36:13.462Z,92.08
2023-03-06T22:38:42.314Z,92.05
2023-03-06T22:41:10.068Z,91.88
2023-03-06T22:43:37.129Z,92.00
2023-03-06T22:46:06.330Z,91.98
2023-03-06T22:48:33.067Z,91.80
2023-03-06T22:51:07.808Z,91.77
2023-03-06T22:53:34.158Z,91.67
2023-03-06T22:56:01.903Z,91.83
2023-03-06T22:58:34.193Z,91.66
2023-03-06T23:01:06.005Z,91.61
2023-03-06T23:03:32.418Z,91.43
2023-03-06T23:05:58.754Z,91.56
2023-03-06T23:08:25.086Z,91.44
2023-03-06T23:10:51.389Z,91.55
2023-03-06T23:13:17.782Z,91.46
2023-03-06T23:15:44.143Z,91.40
2023-03-06T23:18:10.488Z,91.33
2023-03-06T23:20:42.010Z,91.17
2023-03-06T23:23:08.350Z,91.25
2023-03-06T23:25:34.730Z,91.07
2023-03-06T23:28:01.742Z,91.28
2023-03-06T23:30:28.136Z,91.27
2023-03-06T23:32:54.490Z,91.23
2023-03-06T23:35:20.874Z,91.47
2023-03-06T23:37:47.197Z,91.70
2023-03-06T23:40:13.929Z,91.75
2023-03-06T23:42:40.307Z,91.90
2023-03-06T23:45:07.333Z,91.78
2023-03-06T23:47:34.119Z,91.87
2023-03-06T23:50:00.549Z,91.96
2023-03-06T23:52:26.871Z,92.02
2023-03-06T23:54:53.192Z,91.96
2023-03-06T23:57:19.596Z,92.24
2023-03-06T23:59:46.032Z,92.16
